createdAt,value
2018-02-09T00:01:24.090Z,63.63
2018-02-09T00:03:51.637Z,58.30
2018-02-09T00:06:19.163Z,56.87
2018-02-09T00:08:47.463Z,61.73
2018-02-09T00:11:14.993Z,53.63
2018-02-09T00:13:42.504Z,51.73
2018-02-09T00:16:10.016Z,51.33
2018-02-09T00:18:37.662Z,51.90
2018-02-09T00:21:05.186Z,51.03
2018-02-09T00:23:32.702Z,49.13
2018-02-09T00:26:00.239Z,47.60
2018-02-09T00:28:27.745Z,47.60
2018-02-09T00:30:55.312Z,50.03
2018-02-09T00:33:22.858Z,48.27
2018-02-09T00:35:50.385Z,51.43
2018-02-09T00:38:17.934Z,50.07
2018-02-09T00:40:45.474Z,53.40
2018-02-09T00:43:13.738Z,53.10
2018-02-09T00:45:41.248Z,51.97
2018-02-09T00:48:08.882Z,51.30
2018-02-09T00:50:37.184Z,50.60
2018-02-09T00:53:04.690Z,51.53
2018-02-09T00:55:32.222Z,51.27
2018-02-09T00:57:59.751Z,55.27
2018-02-09T01:00:28.034Z,57.30
2018-02-09T01:02:56.437Z,56.47
2018-02-09T01:05:23.943Z,53.67
2018-02-09T01:07:51.463Z,53.10
2018-02-09T01:10:18.997Z,55.13
2018-02-09T01:12:47.265Z,56.80
2018-02-09T01:15:14.788Z,57.37
2018-02-09T01:17:42.322Z,54.93
2018-02-09T01:20:09.841Z,53.27
2018-02-09T01:22:37.354Z,56.60
2018-02-09T01:25:04.884Z,56.63
2018-02-09T01:27:32.407Z,55.07
2018-02-09T01:29:59.907Z,52.27
2018-02-09T01:32:27.441Z,55.40
2018-02-09T01:34:54.952Z,56.20
2018-02-09T01:37:23.236Z,58.63
2018-02-09T01:39:51.632Z,54.77
2018-02-09T01:42:19.146Z,53.23
2018-02-09T01:44:46.656Z,52.47
2018-02-09T01:47:14.312Z,53.37
2018-02-09T01:49:42.600Z,51.73
2018-02-09T01:52:10.104Z,51.20
2018-02-09T01:54:37.728Z,53.60
2018-02-09T01:57:05.244Z,56.60
2018-02-09T01:59:32.760Z,57.10
2018-02-09T02:02:00.301Z,59.13
2018-02-09T02:04:28.604Z,56.73
2018-02-09T02:06:56.122Z,56.73
2018-02-09T02:09:23.662Z,58.40
2018-02-09T02:11:51.164Z,56.13
2018-02-09T02:14:19.445Z,55.77
2018-02-09T02:16:47.741Z,56.73
2018-02-09T02:19:16.007Z,54.43
2018-02-09T02:21:44.279Z,54.17
2018-02-09T02:24:11.827Z,52.47
2018-02-09T02:26:39.327Z,53.43
2018-02-09T02:29:06.860Z,56.53
2018-02-09T02:31:34.405Z,57.77
2018-02-09T02:34:02.692Z,59.10
2018-02-09T02:36:30.209Z,55.40
2018-02-09T02:38:57.825Z,54.63
2018-02-09T02:41:26.110Z,51.13
2018-02-09T02:43:53.621Z,51.87
2018-02-09T02:46:21.148Z,50.27
2018-02-09T02:48:48.684Z,50.33
2018-02-09T02:51:16.213Z,50.17
2018-02-09T02:53:43.753Z,50.50
2018-02-09T02:56:12.022Z,51.13
2018-02-09T02:58:39.532Z,49.93
2018-02-09T03:01:07.184Z,50.70
2018-02-09T03:03:34.713Z,51.80
2018-02-09T03:06:02.261Z,50.73
2018-02-09T03:08:29.809Z,52.47
2018-02-09T03:10:57.320Z,52.43
2018-02-09T03:13:25.589Z,50.50
2018-02-09T03:15:53.121Z,53.53
2018-02-09T03:18:20.646Z,50.23
2018-02-09T03:20:48.165Z,49.13
2018-02-09T03:23:15.685Z,50.67
2018-02-09T03:25:43.194Z,50.73
2018-02-09T03:28:10.697Z,49.20
2018-02-09T03:30:38.232Z,49.20
2018-02-09T03:33:06.513Z,50.30
2018-02-09T03:35:34.787Z,51.10
2018-02-09T03:38:03.060Z,49.13
2018-02-09T03:40:30.577Z,50.63
2018-02-09T03:42:58.117Z,46.37
2018-02-09T03:45:25.716Z,48.20
2018-02-09T03:47:53.221Z,48.63
2018-02-09T03:50:21.533Z,47.70
2018-02-09T03:52:49.039Z,49.97
2018-02-09T03:55:16.539Z,47.67
2018-02-09T03:57:44.838Z,48.53
2018-02-09T04:00:12.350Z,50.00
2018-02-09T04:02:39.865Z,49.47
2018-02-09T04:05:07.401Z,48.80
2018-02-09T04:07:35.678Z,48.90
2018-02-09T04:10:03.196Z,47.70
2018-02-09T04:12:30.820Z,51.13
2018-02-09T04:14:59.113Z,47.47
2018-02-09T04:17:26.633Z,50.53
2018-02-09T04:19:54.272Z,51.30
2018-02-09T04:22:21.788Z,50.40
2018-02-09T04:24:50.075Z,50.57
2018-02-09T04:27:18.376Z,55.80
2018-02-09T04:29:45.886Z,51.43
2018-02-09T04:32:13.400Z,47.80
2018-02-09T04:34:40.931Z,48.70
2018-02-09T04:37:08.440Z,50.93
2018-02-09T04:39:35.946Z,52.77
2018-02-09T04:42:03.479Z,53.07
2018-02-09T04:44:30.985Z,51.97
2018-02-09T04:46:59.260Z,50.30
2018-02-09T04:49:26.813Z,48.07
2018-02-09T04:51:54.321Z,51.03
2018-02-09T04:54:21.892Z,49.17
2018-02-09T04:56:50.165Z,49.73
2018-02-09T04:59:17.674Z,50.00
2018-02-09T05:01:45.192Z,52.30
2018-02-09T05:04:12.832Z,51.63
2018-02-09T05:06:41.109Z,51.17
2018-02-09T05:09:09.389Z,52.00
2018-02-09T05:11:37.700Z,51.33
2018-02-09T05:14:05.207Z,52.90
2018-02-09T05:16:32.707Z,51.80
2018-02-09T05:19:01.016Z,47.47
2018-02-09T05:21:28.550Z,51.20
2018-02-09T05:23:56.825Z,49.43
2018-02-09T05:26:25.132Z,51.60
2018-02-09T05:28:52.640Z,50.50
2018-02-09T05:31:20.165Z,54.73
2018-02-09T05:33:47.723Z,58.13
2018-02-09T05:36:15.243Z,60.00
2018-02-09T05:38:42.766Z,64.97
2018-02-09T05:41:10.298Z,64.23
2018-02-09T05:43:38.596Z,69.80
2018-02-09T05:46:06.103Z,69.07
2018-02-09T05:48:33.653Z,66.30
2018-02-09T05:51:01.174Z,66.23
2018-02-09T05:53:28.691Z,62.87
2018-02-09T05:55:56.219Z,67.03
2018-02-09T05:58:23.746Z,63.80
2018-02-09T06:00:52.041Z,66.40
2018-02-09T06:03:19.590Z,62.47
2018-02-09T06:05:47.874Z,67.73
2018-02-09T06:08:16.148Z,67.50
2018-02-09T06:10:44.464Z,65.57
2018-02-09T06:13:11.997Z,64.63
2018-02-09T06:15:40.298Z,62.77
2018-02-09T06:18:07.836Z,67.47
2018-02-09T06:20:36.128Z,57.40
2018-02-09T06:23:04.412Z,57.57
2018-02-09T06:25:32.738Z,55.67
2018-02-09T06:28:00.272Z,56.30
2018-02-09T06:30:28.691Z,56.63
2018-02-09T06:32:56.241Z,57.03
2018-02-09T06:35:23.774Z,62.93
2018-02-09T06:37:51.296Z,60.97
2018-02-09T06:40:18.854Z,63.60
2018-02-09T06:42:46.385Z,54.43
2018-02-09T06:45:13.912Z,58.23
2018-02-09T06:47:42.232Z,54.87
2018-02-09T06:50:09.744Z,57.67
2018-02-09T06:52:38.028Z,55.50
2018-02-09T06:55:05.561Z,54.53
2018-02-09T06:57:33.102Z,55.97
2018-02-09T07:00:00.631Z,58.03
2018-02-09T07:02:28.278Z,57.17
2018-02-09T07:04:55.810Z,56.40
2018-02-09T07:07:23.331Z,59.93
2018-02-09T07:09:50.884Z,54.33
2018-02-09T07:12:19.183Z,58.73
2018-02-09T07:14:46.698Z,59.07
2018-02-09T07:17:14.264Z,59.37
2018-02-09T07:19:41.804Z,59.80
2018-02-09T07:22:09.363Z,56.37
2018-02-09T07:24:36.920Z,56.70
2018-02-09T07:27:04.450Z,59.63
2018-02-09T07:29:32.728Z,58.80
2018-02-09T07:32:01.132Z,55.20
2018-02-09T07:34:28.652Z,56.00
2018-02-09T07:36:56.221Z,56.60
2018-02-09T07:39:23.786Z,56.00
2018-02-09T07:41:51.364Z,56.03
2018-02-09T07:44:19.678Z,53.97
2018-02-09T07:46:47.247Z,55.27
2018-02-09T07:49:14.780Z,52.87
2018-02-09T07:51:43.056Z,51.03
2018-02-09T07:54:11.428Z,54.10
2018-02-09T07:56:38.942Z,57.40
2018-02-09T07:59:06.457Z,63.47
2018-02-09T08:01:34.786Z,71.97
2018-02-09T08:04:02.308Z,69.57
2018-02-09T08:06:30.610Z,66.23
2018-02-09T08:08:58.148Z,69.77
2018-02-09T08:11:26.430Z,61.07
2018-02-09T08:13:54.732Z,59.23
2018-02-09T08:16:22.235Z,57.23
2018-02-09T08:18:49.763Z,52.23
2018-02-09T08:21:17.324Z,44.70
2018-02-09T08:23:44.831Z,46.13
2018-02-09T08:26:12.333Z,46.83
2018-02-09T08:28:40.634Z,46.93
2018-02-09T08:31:08.158Z,46.03
2018-02-09T08:33:35.683Z,51.10
2018-02-09T08:36:03.233Z,51.40
2018-02-09T08:38:30.749Z,50.43
2018-02-09T08:40:58.276Z,54.00
2018-02-09T08:43:25.820Z,57.10
2018-02-09T08:45:53.339Z,60.67
2018-02-09T08:48:21.628Z,62.23
2018-02-09T08:50:49.923Z,62.43
2018-02-09T08:53:18.214Z,59.23
2018-02-09T08:55:45.716Z,60.40
2018-02-09T08:58:13.267Z,66.20
2018-02-09T09:00:40.797Z,60.50
2018-02-09T09:03:08.319Z,60.47
2018-02-09T09:05:35.874Z,60.83
2018-02-09T09:08:04.192Z,66.97
2018-02-09T09:10:32.461Z,59.90
2018-02-09T09:13:00.039Z,59.67
2018-02-09T09:15:28.330Z,60.63
2018-02-09T09:17:55.889Z,60.73
2018-02-09T09:20:24.284Z,59.57
2018-02-09T09:22:51.792Z,80.93
2018-02-09T09:25:19.329Z,59.17
2018-02-09T09:27:46.894Z,59.13
2018-02-09T09:30:14.424Z,58.87
2018-02-09T09:32:42.709Z,60.53
2018-02-09T09:35:10.236Z,52.87
2018-02-09T09:37:37.751Z,57.03
2018-02-09T09:40:05.260Z,55.90
2018-02-09T09:42:32.889Z,55.07
2018-02-09T09:45:00.402Z,59.27
2018-02-09T09:47:27.912Z,58.57
2018-02-09T09:49:55.447Z,59.80
2018-02-09T09:52:23.761Z,60.10
2018-02-09T09:54:51.306Z,61.57
2018-02-09T09:57:18.867Z,63.63
2018-02-09T09:59:46.388Z,64.73
2018-02-09T10:02:25.957Z,66.43
2018-02-09T10:04:54.291Z,68.27
2018-02-09T10:07:21.821Z,79.47
2018-02-09T10:09:49.366Z,73.10
2018-02-09T10:12:17.669Z,68.20
2018-02-09T10:14:45.184Z,65.57
2018-02-09T10:17:12.767Z,66.40
2018-02-09T10:19:41.057Z,68.97
2018-02-09T10:22:08.613Z,62.93
2018-02-09T10:24:36.934Z,63.33
2018-02-09T10:27:04.454Z,61.23
2018-02-09T10:29:32.731Z,65.80
2018-02-09T10:32:01.050Z,64.00
2018-02-09T10:34:28.574Z,65.23
2018-02-09T10:36:56.903Z,68.77
2018-02-09T10:39:24.449Z,69.80
2018-02-09T10:41:51.971Z,71.20
2018-02-09T10:44:19.505Z,71.47
2018-02-09T10:46:47.066Z,71.10
2018-02-09T10:49:14.573Z,65.80
2018-02-09T10:51:42.869Z,69.73
2018-02-09T10:54:10.429Z,59.00
2018-02-09T10:56:37.952Z,55.17
2018-02-09T10:59:05.534Z,56.13
2018-02-09T11:01:36.733Z,57.57
2018-02-09T11:04:04.287Z,48.50
2018-02-09T11:06:31.830Z,36.57
2018-02-09T11:08:59.380Z,38.20
2018-02-09T11:11:27.678Z,36.40
2018-02-09T11:13:55.196Z,41.23
2018-02-09T11:16:23.512Z,36.63
2018-02-09T11:18:51.815Z,33.43
2018-02-09T11:21:19.326Z,34.97
2018-02-09T11:23:46.888Z,36.50
2018-02-09T11:26:14.508Z,36.30
2018-02-09T11:28:42.040Z,38.60
2018-02-09T11:31:09.565Z,38.30
2018-02-09T11:33:37.135Z,27.63
2018-02-09T11:36:04.665Z,36.43
2018-02-09T11:38:32.364Z,40.07
2018-02-09T11:40:59.900Z,40.77
2018-02-09T11:43:27.537Z,46.60
2018-02-09T11:45:55.097Z,48.17
2018-02-09T11:48:23.368Z,50.33
2018-02-09T11:50:50.876Z,49.70
2018-02-09T11:53:18.433Z,54.20
2018-02-09T11:55:45.945Z,51.20
2018-02-09T11:58:13.484Z,46.30
2018-02-09T12:00:41.058Z,45.73
2018-02-09T12:03:08.638Z,41.10
2018-02-09T12:05:36.160Z,43.63
2018-02-09T12:08:03.793Z,44.07
2018-02-09T12:10:32.123Z,41.67
2018-02-09T12:12:59.672Z,43.30
2018-02-09T12:15:27.216Z,43.57
2018-02-09T12:17:54.754Z,43.00
2018-02-09T12:20:23.064Z,40.87
2018-02-09T12:22:50.622Z,44.57
2018-02-09T12:25:18.158Z,44.10
2018-02-09T12:27:46.474Z,46.93
2018-02-09T12:30:14.021Z,46.57
2018-02-09T12:32:42.301Z,44.37
2018-02-09T12:35:10.599Z,48.50
2018-02-09T12:37:38.135Z,44.47
2018-02-09T12:40:06.527Z,44.40
2018-02-09T12:42:34.199Z,47.23
2018-02-09T12:45:02.076Z,45.73
2018-02-09T12:47:30.036Z,46.83
2018-02-09T12:49:58.354Z,44.70
2018-02-09T12:52:25.874Z,46.67
2018-02-09T12:54:54.157Z,47.87
2018-02-09T12:57:22.545Z,43.83
2018-02-09T12:59:50.835Z,42.77
2018-02-09T13:02:18.364Z,45.67
2018-02-09T13:04:45.913Z,44.53
2018-02-09T13:07:13.444Z,45.77
2018-02-09T13:09:40.971Z,46.23
2018-02-09T13:12:09.405Z,46.07
2018-02-09T13:14:48.907Z,45.97
2018-02-09T13:17:16.451Z,54.20
2018-02-09T13:19:44.762Z,55.30
2018-02-09T13:22:35.941Z,55.07
2018-02-09T13:25:04.224Z,59.60
2018-02-09T13:27:32.528Z,59.00
2018-02-09T13:30:00.117Z,61.70
2018-02-09T13:32:39.702Z,59.93
2018-02-09T13:35:08.001Z,60.53
2018-02-09T13:37:35.522Z,57.23
2018-02-09T13:40:03.041Z,56.47
2018-02-09T13:42:30.583Z,57.03
2018-02-09T13:44:58.874Z,55.43
2018-02-09T13:47:26.405Z,54.73
2018-02-09T13:49:54.740Z,54.53
2018-02-09T13:52:22.248Z,54.90
2018-02-09T13:54:49.777Z,57.17
2018-02-09T13:57:17.319Z,53.27
2018-02-09T13:59:44.834Z,57.00
2018-02-09T14:02:12.362Z,56.03
2018-02-09T14:04:39.903Z,59.90
2018-02-09T14:07:07.494Z,59.43
2018-02-09T14:09:35.012Z,57.93
2018-02-09T14:12:03.325Z,61.60
2018-02-09T14:14:30.856Z,67.27
2018-02-09T14:16:59.161Z,64.40
2018-02-09T14:19:26.720Z,67.77
2018-02-09T14:21:54.239Z,68.20
2018-02-09T14:24:21.764Z,70.47
2018-02-09T14:26:49.345Z,69.27
2018-02-09T14:29:16.890Z,64.87
2018-02-09T14:31:44.411Z,65.73
2018-02-09T14:34:12.720Z,64.47
2018-02-09T14:36:40.287Z,66.07
2018-02-09T14:39:07.829Z,73.63
2018-02-09T14:41:36.174Z,79.57
2018-02-09T14:44:03.711Z,82.33
2018-02-09T14:46:31.242Z,91.87
2018-02-09T14:48:59.571Z,90.57
2018-02-09T14:51:27.101Z,91.27
2018-02-09T14:53:54.650Z,92.57
2018-02-09T14:56:22.278Z,89.77
2018-02-09T14:58:49.830Z,91.30
2018-02-09T15:01:17.366Z,92.20
2018-02-09T15:03:44.944Z,83.43
2018-02-09T15:06:12.463Z,78.83
2018-02-09T15:08:40.763Z,79.33
2018-02-09T15:11:08.388Z,75.83
2018-02-09T15:13:35.918Z,70.53
2018-02-09T15:16:03.457Z,73.73
2018-02-09T15:18:31.010Z,82.60
2018-02-09T15:20:58.548Z,72.60
2018-02-09T15:23:26.861Z,85.13
2018-02-09T15:25:54.430Z,78.73
2018-02-09T15:28:21.941Z,80.27
2018-02-09T15:30:49.465Z,72.30
2018-02-09T15:33:17.026Z,72.47
2018-02-09T15:35:44.624Z,70.90
2018-02-09T15:38:12.190Z,74.53
2018-02-09T15:40:39.771Z,71.17
2018-02-09T15:43:07.303Z,78.03
2018-02-09T15:45:34.859Z,76.47
2018-02-09T15:48:02.530Z,78.57
2018-02-09T15:50:30.065Z,83.93
2018-02-09T15:52:57.625Z,89.30
2018-02-09T15:55:25.202Z,88.03
2018-02-09T15:57:52.738Z,90.13
2018-02-09T16:00:21.049Z,83.87
2018-02-09T16:02:48.598Z,80.40
2018-02-09T16:05:16.122Z,71.07
2018-02-09T16:07:43.634Z,67.63
2018-02-09T16:10:11.200Z,63.63
2018-02-09T16:12:38.729Z,69.17
2018-02-09T16:15:07.040Z,65.70
2018-02-09T16:17:34.675Z,69.10
2018-02-09T16:20:02.968Z,68.97
2018-02-09T16:22:31.276Z,68.93
2018-02-09T16:24:58.824Z,74.13
2018-02-09T16:27:26.347Z,78.57
2018-02-09T16:29:53.918Z,76.17
2018-02-09T16:32:21.504Z,72.70
2018-02-09T16:34:49.795Z,70.70
2018-02-09T16:37:17.329Z,77.00
2018-02-09T16:39:44.894Z,74.10
2018-02-09T16:42:12.463Z,70.70
2018-02-09T16:44:39.981Z,72.90
2018-02-09T16:47:07.521Z,76.10
2018-02-09T16:49:35.060Z,76.37
2018-02-09T16:52:03.342Z,83.00
2018-02-09T16:54:31.654Z,84.93
2018-02-09T16:56:59.200Z,93.97
2018-02-09T16:59:27.498Z,91.27
2018-02-09T17:01:55.064Z,93.13
2018-02-09T17:04:22.587Z,100.43
2018-02-09T17:06:50.906Z,99.93
2018-02-09T17:09:18.463Z,100.03
2018-02-09T17:11:45.975Z,98.70
2018-02-09T17:14:13.537Z,99.27
2018-02-09T17:16:41.103Z,100.97
2018-02-09T17:19:08.622Z,93.60
2018-02-09T17:21:36.182Z,95.57
2018-02-09T17:24:03.850Z,96.23
2018-02-09T17:26:31.368Z,101.07
2018-02-09T17:28:58.892Z,96.20
2018-02-09T17:31:26.446Z,99.83
2018-02-09T17:33:53.984Z,101.83
2018-02-09T17:36:22.271Z,101.57
2018-02-09T17:38:49.820Z,97.90
2018-02-09T17:41:18.112Z,102.83
2018-02-09T17:43:46.392Z,98.17
2018-02-09T17:46:14.762Z,103.83
2018-02-09T17:48:43.052Z,105.97
2018-02-09T17:51:11.372Z,99.33
2018-02-09T17:53:38.914Z,103.23
2018-02-09T17:56:06.429Z,105.20
2018-02-09T17:58:33.963Z,104.13
2018-02-09T18:01:01.520Z,108.80
2018-02-09T18:03:29.081Z,124.47
2018-02-09T18:05:56.627Z,135.03
2018-02-09T18:08:24.330Z,129.07
2018-02-09T18:10:51.872Z,131.30
2018-02-09T18:13:19.430Z,138.80
2018-02-09T18:15:47.036Z,134.50
2018-02-09T18:18:14.568Z,124.90
2018-02-09T18:20:42.119Z,116.30
2018-02-09T18:23:09.811Z,127.97
2018-02-09T18:25:37.358Z,128.23
2018-02-09T18:28:04.889Z,129.77
2018-02-09T18:30:33.229Z,115.93
2018-02-09T18:33:00.843Z,114.17
2018-02-09T18:35:29.162Z,114.10
2018-02-09T18:37:56.811Z,118.20
2018-02-09T18:40:24.403Z,114.63
2018-02-09T18:42:51.923Z,112.80
2018-02-09T18:45:19.476Z,116.20
2018-02-09T18:47:47.791Z,112.33
2018-02-09T18:50:15.305Z,111.90
2018-02-09T18:52:42.876Z,108.43
2018-02-09T18:55:11.194Z,112.43
2018-02-09T18:57:38.728Z,111.73
2018-02-09T19:00:07.057Z,114.43
2018-02-09T19:02:34.624Z,112.07
2018-02-09T19:05:02.161Z,111.90
2018-02-09T19:07:29.740Z,114.37
2018-02-09T19:09:57.288Z,117.37
2018-02-09T19:12:24.819Z,113.40
2018-02-09T19:14:53.146Z,116.03
2018-02-09T19:17:20.711Z,117.23
2018-02-09T19:19:48.291Z,114.90
2018-02-09T19:22:15.846Z,115.50
2018-02-09T19:24:43.417Z,113.90
2018-02-09T19:27:10.968Z,113.77
2018-02-09T19:29:38.567Z,114.63
2018-02-09T19:32:06.092Z,113.60
2018-02-09T19:34:33.659Z,114.90
2018-02-09T19:37:01.244Z,115.50
2018-02-09T19:39:28.799Z,119.00
2018-02-09T19:41:56.364Z,117.47
2018-02-09T19:44:23.922Z,122.90
2018-02-09T19:46:51.492Z,123.20
2018-02-09T19:49:19.026Z,124.47
2018-02-09T19:51:46.601Z,126.33
2018-02-09T19:54:14.231Z,124.03
2018-02-09T19:56:42.544Z,125.30
2018-02-09T19:59:10.109Z,125.23
2018-02-09T20:01:37.648Z,123.13
2018-02-09T20:04:05.969Z,125.60
2018-02-09T20:06:33.531Z,123.93
2018-02-09T20:09:01.088Z,133.60
2018-02-09T20:11:28.661Z,136.37
2018-02-09T20:13:56.303Z,137.13
2018-02-09T20:16:23.895Z,139.60
2018-02-09T20:18:51.450Z,143.30
2018-02-09T20:21:19.080Z,146.97
2018-02-09T20:23:47.421Z,151.77
2018-02-09T20:26:14.958Z,148.70
2018-02-09T20:28:42.539Z,146.57
2018-02-09T20:31:10.092Z,147.27
2018-02-09T20:33:37.660Z,142.80
2018-02-09T20:36:05.225Z,143.70
2018-02-09T20:38:32.801Z,141.90
2018-02-09T20:41:00.343Z,140.63
2018-02-09T20:43:27.927Z,144.90
2018-02-09T20:45:55.471Z,141.80
2018-02-09T20:48:23.061Z,142.23
2018-02-09T20:50:50.792Z,141.53
2018-02-09T20:53:18.348Z,142.73
2018-02-09T20:55:45.959Z,144.93
2018-02-09T20:58:13.615Z,144.70
2018-02-09T21:00:41.148Z,145.60
2018-02-09T21:03:08.723Z,145.83
2018-02-09T21:05:36.280Z,149.40
2018-02-09T21:08:03.830Z,147.10
2018-02-09T21:10:31.394Z,148.83
2018-02-09T21:12:58.993Z,147.13
2018-02-09T21:15:26.545Z,150.40
2018-02-09T21:17:54.072Z,152.13
2018-02-09T21:20:22.488Z,153.50
2018-02-09T21:22:50.056Z,156.97
2018-02-09T21:25:17.589Z,163.70
2018-02-09T21:27:45.987Z,161.77
2018-02-09T21:30:13.542Z,169.13
2018-02-09T21:32:41.856Z,175.97
2018-02-09T21:35:09.414Z,176.03
2018-02-09T21:37:36.946Z,190.60
2018-02-09T21:40:05.262Z,186.77
2018-02-09T21:42:32.813Z,184.20
2018-02-09T21:45:00.340Z,165.63
2018-02-09T21:47:28.658Z,182.13
2018-02-09T21:49:56.302Z,170.73
2018-02-09T21:52:24.612Z,167.30
2018-02-09T21:54:52.182Z,160.40
2018-02-09T21:57:19.829Z,166.97
2018-02-09T21:59:47.358Z,161.57
2018-02-09T22:02:14.952Z,162.27
2018-02-09T22:04:42.543Z,159.80
2018-02-09T22:07:10.069Z,153.17
2018-02-09T22:09:38.376Z,152.30
2018-02-09T22:12:06.054Z,134.93
2018-02-09T22:14:33.600Z,139.57
2018-02-09T22:17:01.149Z,129.27
2018-02-09T22:19:28.839Z,127.13
2018-02-09T22:21:56.412Z,122.27
2018-02-09T22:24:23.937Z,126.00
2018-02-09T22:26:52.363Z,126.30
2018-02-09T22:29:19.872Z,132.33
2018-02-09T22:31:48.172Z,136.20
2018-02-09T22:34:15.750Z,127.33
2018-02-09T22:36:43.286Z,124.63
2018-02-09T22:39:11.583Z,122.37
2018-02-09T22:41:39.128Z,123.20
2018-02-09T22:44:07.445Z,121.00
2018-02-09T22:46:34.981Z,118.40
2018-02-09T22:49:03.291Z,114.97
2018-02-09T22:51:30.835Z,110.97
2018-02-09T22:53:58.380Z,114.57
2018-02-09T22:56:26.688Z,109.17
2018-02-09T22:58:54.198Z,107.00
2018-02-09T23:01:21.716Z,108.47
2018-02-09T23:03:49.262Z,110.87
2018-02-09T23:06:17.543Z,109.43
2018-02-09T23:08:45.955Z,112.73
2018-02-09T23:11:13.500Z,112.60
2018-02-09T23:13:41.064Z,116.53
2018-02-09T23:16:08.608Z,118.53
2018-02-09T23:18:36.890Z,120.30
2018-02-09T23:21:05.180Z,121.80
2018-02-09T23:23:33.598Z,122.87
2018-02-09T23:26:01.132Z,125.10
2018-02-09T23:28:28.684Z,123.57
2018-02-09T23:30:57.002Z,118.23
2018-02-09T23:33:24.524Z,115.83
2018-02-09T23:35:52.802Z,117.93
2018-02-09T23:38:21.100Z,121.37
2018-02-09T23:40:48.614Z,126.00
2018-02-09T23:43:16.139Z,119.10
2018-02-09T23:45:43.677Z,116.57
2018-02-09T23:48:11.971Z,117.47
2018-02-09T23:50:39.512Z,119.53
2018-02-09T23:53:07.044Z,120.67
2018-02-09T23:55:34.569Z,119.60
2018-02-09T23:58:02.075Z,114.97
